sensor_id;sensor_type;location;lat;lon;timestamp;P1;durP1;ratioP1;P2;durP2;ratioP2
56255;SDS011;57229;51.432;-2.598;2023-02-10T00:01:23;8.38;;;5.55;;
56255;SDS011;57229;51.432;-2.598;2023-02-10T00:03:52;10.57;;;5.78;;
56255;SDS011;57229;51.432;-2.598;2023-02-10T00:06:18;11.10;;;5.32;;
56255;SDS011;57229;51.432;-2.598;2023-02-10T00:08:49;8.95;;;5.95;;
56255;SDS011;57229;51.432;-2.598;2023-02-10T00:11:16;9.80;;;6.13;;
56255;SDS011;57229;51.432;-2.598;2023-02-10T00:13:42;8.80;;;6.00;;
56255;SDS011;57229;51.432;-2.598;2023-02-10T00:16:10;12.15;;;6.43;;
56255;SDS011;57229;51.432;-2.598;2023-02-10T00:18:37;9.68;;;6.25;;
56255;SDS011;57229;51.432;-2.598;2023-02-10T00:23:37;11.75;;;6.22;;
56255;SDS011;57229;51.432;-2.598;2023-02-10T00:26:03;8.80;;;6.28;;
56255;SDS011;57229;51.432;-2.598;2023-02-10T00:28:30;13.70;;;6.03;;
56255;SDS011;57229;51.432;-2.598;2023-02-10T00:30:58;11.05;;;6.18;;
56255;SDS011;57229;51.432;-2.598;2023-02-10T00:33:24;12.07;;;6.07;;
56255;SDS011;57229;51.432;-2.598;2023-02-10T00:35:50;10.80;;;5.88;;
56255;SDS011;57229;51.432;-2.598;2023-02-10T00:38:16;12.70;;;6.38;;
56255;SDS011;57229;51.432;-2.598;2023-02-10T00:40:42;11.02;;;6.40;;
56255;SDS011;57229;51.432;-2.598;2023-02-10T00:43:08;11.88;;;6.18;;
56255;SDS011;57229;51.432;-2.598;2023-02-10T00:45:33;8.55;;;5.88;;
56255;SDS011;57229;51.432;-2.598;2023-02-10T00:47:59;9.50;;;6.10;;
56255;SDS011;57229;51.432;-2.598;2023-02-10T00:50:25;10.15;;;6.30;;
56255;SDS011;57229;51.432;-2.598;2023-02-10T00:52:50;9.07;;;5.75;;
56255;SDS011;57229;51.432;-2.598;2023-02-10T00:55:16;10.20;;;5.90;;
56255;SDS011;57229;51.432;-2.598;2023-02-10T00:57:42;9.65;;;6.22;;
56255;SDS011;57229;51.432;-2.598;2023-02-10T01:00:07;11.60;;;6.38;;
56255;SDS011;57229;51.432;-2.598;2023-02-10T01:02:33;9.75;;;6.07;;
56255;SDS011;57229;51.432;-2.598;2023-02-10T01:04:59;11.20;;;6.40;;
56255;SDS011;57229;51.432;-2.598;2023-02-10T01:07:25;10.65;;;6.28;;
56255;SDS011;57229;51.432;-2.598;2023-02-10T01:09:50;10.73;;;6.50;;
56255;SDS011;57229;51.432;-2.598;2023-02-10T01:12:16;10.00;;;6.22;;
56255;SDS011;57229;51.432;-2.598;2023-02-10T01:14:42;10.98;;;6.60;;
56255;SDS011;57229;51.432;-2.598;2023-02-10T01:17:08;11.18;;;6.10;;
56255;SDS011;57229;51.432;-2.598;2023-02-10T01:19:33;10.23;;;6.25;;
56255;SDS011;57229;51.432;-2.598;2023-02-10T01:21:59;12.45;;;6.43;;
56255;SDS011;57229;51.432;-2.598;2023-02-10T01:24:24;11.43;;;6.63;;
56255;SDS011;57229;51.432;-2.598;2023-02-10T01:26:50;9.35;;;6.20;;
56255;SDS011;57229;51.432;-2.598;2023-02-10T01:29:16;11.48;;;6.32;;
56255;SDS011;57229;51.432;-2.598;2023-02-10T01:31:41;8.40;;;5.50;;
56255;SDS011;57229;51.432;-2.598;2023-02-10T01:34:07;10.75;;;6.63;;
56255;SDS011;57229;51.432;-2.598;2023-02-10T01:36:33;9.35;;;6.10;;
56255;SDS011;57229;51.432;-2.598;2023-02-10T01:38:58;10.43;;;6.38;;
56255;SDS011;57229;51.432;-2.598;2023-02-10T01:41:24;10.38;;;6.35;;
56255;SDS011;57229;51.432;-2.598;2023-02-10T01:43:58;14.40;;;5.95;;
56255;SDS011;57229;51.432;-2.598;2023-02-10T01:46:24;11.40;;;6.43;;
56255;SDS011;57229;51.432;-2.598;2023-02-10T01:48:51;10.23;;;6.50;;
56255;SDS011;57229;51.432;-2.598;2023-02-10T01:51:18;10.75;;;6.50;;
56255;SDS011;57229;51.432;-2.598;2023-02-10T01:53:47;10.50;;;6.25;;
56255;SDS011;57229;51.432;-2.598;2023-02-10T01:56:13;11.85;;;6.28;;
56255;SDS011;57229;51.432;-2.598;2023-02-10T01:58:41;9.68;;;6.25;;
56255;SDS011;57229;51.432;-2.598;2023-02-10T02:01:09;12.52;;;6.22;;
56255;SDS011;57229;51.432;-2.598;2023-02-10T02:03:35;11.13;;;5.80;;
56255;SDS011;57229;51.432;-2.598;2023-02-10T02:06:01;12.88;;;5.80;;
56255;SDS011;57229;51.432;-2.598;2023-02-10T02:08:27;10.18;;;6.18;;
56255;SDS011;57229;51.432;-2.598;2023-02-10T02:16:02;11.85;;;5.85;;
56255;SDS011;57229;51.432;-2.598;2023-02-10T02:18:33;10.27;;;6.10;;
56255;SDS011;57229;51.432;-2.598;2023-02-10T02:21:09;12.40;;;6.28;;
56255;SDS011;57229;51.432;-2.598;2023-02-10T02:23:57;13.20;;;6.40;;
56255;SDS011;57229;51.432;-2.598;2023-02-10T02:26:55;9.35;;;6.35;;
56255;SDS011;57229;51.432;-2.598;2023-02-10T02:32:35;9.60;;;5.85;;
56255;SDS011;57229;51.432;-2.598;2023-02-10T02:35:24;9.98;;;5.90;;
56255;SDS011;57229;51.432;-2.598;2023-02-10T02:37:56;9.35;;;6.07;;
56255;SDS011;57229;51.432;-2.598;2023-02-10T02:40:22;8.25;;;5.43;;
56255;SDS011;57229;51.432;-2.598;2023-02-10T02:42:47;11.13;;;6.40;;
56255;SDS011;57229;51.432;-2.598;2023-02-10T02:47:54;9.15;;;6.03;;
56255;SDS011;57229;51.432;-2.598;2023-02-10T02:50:35;11.43;;;6.50;;
56255;SDS011;57229;51.432;-2.598;2023-02-10T02:55:52;11.75;;;6.30;;
56255;SDS011;57229;51.432;-2.598;2023-02-10T03:01:31;12.05;;;6.40;;
56255;SDS011;57229;51.432;-2.598;2023-02-10T03:04:00;12.20;;;6.40;;
56255;SDS011;57229;51.432;-2.598;2023-02-10T03:06:28;12.32;;;6.72;;
56255;SDS011;57229;51.432;-2.598;2023-02-10T03:08:54;12.35;;;7.18;;
56255;SDS011;57229;51.432;-2.598;2023-02-10T03:11:20;11.20;;;6.20;;
56255;SDS011;57229;51.432;-2.598;2023-02-10T03:13:45;11.52;;;6.40;;
56255;SDS011;57229;51.432;-2.598;2023-02-10T03:16:11;12.30;;;6.80;;
56255;SDS011;57229;51.432;-2.598;2023-02-10T03:18:37;12.32;;;6.10;;
56255;SDS011;57229;51.432;-2.598;2023-02-10T03:21:03;9.98;;;5.90;;
56255;SDS011;57229;51.432;-2.598;2023-02-10T03:23:29;11.32;;;6.10;;
56255;SDS011;57229;51.432;-2.598;2023-02-10T03:25:56;8.68;;;6.38;;
56255;SDS011;57229;51.432;-2.598;2023-02-10T03:28:23;14.32;;;6.57;;
56255;SDS011;57229;51.432;-2.598;2023-02-10T03:30:49;12.63;;;6.68;;
56255;SDS011;57229;51.432;-2.598;2023-02-10T03:33:15;11.63;;;6.35;;
56255;SDS011;57229;51.432;-2.598;2023-02-10T03:35:41;12.00;;;6.88;;
56255;SDS011;57229;51.432;-2.598;2023-02-10T03:38:08;10.85;;;6.55;;
56255;SDS011;57229;51.432;-2.598;2023-02-10T03:40:34;11.10;;;5.90;;
56255;SDS011;57229;51.432;-2.598;2023-02-10T03:43:00;8.63;;;6.32;;
56255;SDS011;57229;51.432;-2.598;2023-02-10T03:45:25;10.15;;;6.38;;
56255;SDS011;57229;51.432;-2.598;2023-02-10T03:47:51;10.95;;;6.85;;
56255;SDS011;57229;51.432;-2.598;2023-02-10T03:50:17;11.23;;;6.30;;
56255;SDS011;57229;51.432;-2.598;2023-02-10T03:52:42;11.48;;;6.53;;
56255;SDS011;57229;51.432;-2.598;2023-02-10T03:55:08;10.23;;;5.93;;
56255;SDS011;57229;51.432;-2.598;2023-02-10T03:57:38;9.93;;;6.38;;
56255;SDS011;57229;51.432;-2.598;2023-02-10T04:00:04;9.93;;;6.00;;
56255;SDS011;57229;51.432;-2.598;2023-02-10T04:02:30;9.50;;;6.30;;
56255;SDS011;57229;51.432;-2.598;2023-02-10T04:04:56;10.13;;;6.18;;
56255;SDS011;57229;51.432;-2.598;2023-02-10T04:07:22;10.13;;;6.10;;
56255;SDS011;57229;51.432;-2.598;2023-02-10T04:09:47;12.95;;;6.18;;
56255;SDS011;57229;51.432;-2.598;2023-02-10T04:12:13;10.35;;;6.07;;
56255;SDS011;57229;51.432;-2.598;2023-02-10T04:14:39;8.85;;;5.93;;
56255;SDS011;57229;51.432;-2.598;2023-02-10T04:17:04;11.85;;;6.47;;
56255;SDS011;57229;51.432;-2.598;2023-02-10T04:19:30;10.82;;;6.82;;
56255;SDS011;57229;51.432;-2.598;2023-02-10T04:21:56;13.98;;;6.53;;
56255;SDS011;57229;51.432;-2.598;2023-02-10T04:24:21;11.90;;;6.40;;
56255;SDS011;57229;51.432;-2.598;2023-02-10T04:26:47;10.15;;;5.75;;
56255;SDS011;57229;51.432;-2.598;2023-02-10T04:29:13;10.93;;;6.20;;
56255;SDS011;57229;51.432;-2.598;2023-02-10T04:31:38;9.77;;;5.82;;
56255;SDS011;57229;51.432;-2.598;2023-02-10T04:34:04;9.80;;;6.10;;
56255;SDS011;57229;51.432;-2.598;2023-02-10T04:36:30;9.77;;;6.35;;
56255;SDS011;57229;51.432;-2.598;2023-02-10T04:38:55;7.65;;;5.53;;
56255;SDS011;57229;51.432;-2.598;2023-02-10T04:41:21;10.77;;;6.43;;
56255;SDS011;57229;51.432;-2.598;2023-02-10T04:43:47;11.38;;;6.47;;
56255;SDS011;57229;51.432;-2.598;2023-02-10T04:46:13;10.10;;;6.60;;
56255;SDS011;57229;51.432;-2.598;2023-02-10T04:48:38;10.18;;;6.25;;
56255;SDS011;57229;51.432;-2.598;2023-02-10T04:51:11;8.20;;;5.93;;
56255;SDS011;57229;51.432;-2.598;2023-02-10T04:53:37;9.05;;;5.82;;
56255;SDS011;57229;51.432;-2.598;2023-02-10T04:56:04;11.65;;;5.95;;
56255;SDS011;57229;51.432;-2.598;2023-02-10T04:58:31;9.25;;;5.88;;
56255;SDS011;57229;51.432;-2.598;2023-02-10T05:00:57;10.13;;;6.20;;
56255;SDS011;57229;51.432;-2.598;2023-02-10T05:03:23;10.13;;;6.45;;
56255;SDS011;57229;51.432;-2.598;2023-02-10T05:05:49;12.48;;;6.03;;
56255;SDS011;57229;51.432;-2.598;2023-02-10T05:08:16;8.93;;;5.70;;
56255;SDS011;57229;51.432;-2.598;2023-02-10T05:10:46;7.93;;;5.43;;
56255;SDS011;57229;51.432;-2.598;2023-02-10T05:13:12;8.88;;;5.85;;
56255;SDS011;57229;51.432;-2.598;2023-02-10T05:15:38;9.73;;;5.88;;
56255;SDS011;57229;51.432;-2.598;2023-02-10T05:18:04;10.32;;;5.60;;
56255;SDS011;57229;51.432;-2.598;2023-02-10T05:20:30;12.52;;;6.43;;
56255;SDS011;57229;51.432;-2.598;2023-02-10T05:22:55;11.20;;;6.03;;
56255;SDS011;57229;51.432;-2.598;2023-02-10T05:25:21;11.35;;;5.93;;
56255;SDS011;57229;51.432;-2.598;2023-02-10T05:31:26;9.68;;;5.97;;
56255;SDS011;57229;51.432;-2.598;2023-02-10T05:33:52;10.98;;;6.40;;
56255;SDS011;57229;51.432;-2.598;2023-02-10T05:36:18;11.60;;;6.10;;
56255;SDS011;57229;51.432;-2.598;2023-02-10T05:38:44;9.95;;;5.75;;
56255;SDS011;57229;51.432;-2.598;2023-02-10T05:41:30;9.82;;;5.63;;
56255;SDS011;57229;51.432;-2.598;2023-02-10T05:43:56;10.02;;;5.85;;
56255;SDS011;57229;51.432;-2.598;2023-02-10T05:46:21;9.30;;;5.65;;
56255;SDS011;57229;51.432;-2.598;2023-02-10T05:48:47;8.85;;;5.43;;
56255;SDS011;57229;51.432;-2.598;2023-02-10T05:51:13;10.20;;;5.78;;
56255;SDS011;57229;51.432;-2.598;2023-02-10T05:53:38;11.07;;;5.70;;
56255;SDS011;57229;51.432;-2.598;2023-02-10T05:56:04;9.43;;;6.13;;
56255;SDS011;57229;51.432;-2.598;2023-02-10T05:58:30;9.90;;;5.75;;
56255;SDS011;57229;51.432;-2.598;2023-02-10T06:00:57;7.45;;;5.65;;
56255;SDS011;57229;51.432;-2.598;2023-02-10T06:03:30;8.60;;;5.50;;
56255;SDS011;57229;51.432;-2.598;2023-02-10T06:05:55;8.65;;;5.63;;
56255;SDS011;57229;51.432;-2.598;2023-02-10T06:08:21;9.25;;;6.07;;
56255;SDS011;57229;51.432;-2.598;2023-02-10T06:10:47;10.27;;;6.25;;
56255;SDS011;57229;51.432;-2.598;2023-02-10T06:13:12;11.88;;;6.57;;
56255;SDS011;57229;51.432;-2.598;2023-02-10T06:15:38;8.65;;;5.70;;
56255;SDS011;57229;51.432;-2.598;2023-02-10T06:18:04;11.23;;;6.47;;
56255;SDS011;57229;51.432;-2.598;2023-02-10T06:20:29;10.10;;;5.78;;
56255;SDS011;57229;51.432;-2.598;2023-02-10T06:22:55;11.75;;;6.25;;
56255;SDS011;57229;51.432;-2.598;2023-02-10T06:25:21;9.00;;;6.07;;
56255;SDS011;57229;51.432;-2.598;2023-02-10T06:27:46;10.05;;;5.97;;
56255;SDS011;57229;51.432;-2.598;2023-02-10T06:30:12;11.05;;;5.70;;
56255;SDS011;57229;51.432;-2.598;2023-02-10T06:32:39;8.82;;;6.40;;
56255;SDS011;57229;51.432;-2.598;2023-02-10T06:35:05;9.10;;;5.82;;
56255;SDS011;57229;51.432;-2.598;2023-02-10T06:37:31;9.65;;;5.82;;
56255;SDS011;57229;51.432;-2.598;2023-02-10T06:39:57;10.88;;;5.85;;
56255;SDS011;57229;51.432;-2.598;2023-02-10T06:42:22;10.43;;;5.60;;
56255;SDS011;57229;51.432;-2.598;2023-02-10T06:44:48;8.80;;;5.43;;
56255;SDS011;57229;51.432;-2.598;2023-02-10T06:47:13;11.50;;;5.70;;
56255;SDS011;57229;51.432;-2.598;2023-02-10T06:49:39;9.32;;;5.55;;
56255;SDS011;57229;51.432;-2.598;2023-02-10T06:52:05;8.93;;;5.43;;
56255;SDS011;57229;51.432;-2.598;2023-02-10T06:54:30;8.70;;;4.78;;
56255;SDS011;57229;51.432;-2.598;2023-02-10T06:56:56;11.68;;;6.13;;
56255;SDS011;57229;51.432;-2.598;2023-02-10T06:59:22;10.40;;;5.78;;
56255;SDS011;57229;51.432;-2.598;2023-02-10T07:01:47;11.98;;;5.88;;
56255;SDS011;57229;51.432;-2.598;2023-02-10T07:04:13;9.65;;;5.70;;
56255;SDS011;57229;51.432;-2.598;2023-02-10T07:06:39;8.32;;;5.68;;
56255;SDS011;57229;51.432;-2.598;2023-02-10T07:09:05;8.15;;;5.38;;
56255;SDS011;57229;51.432;-2.598;2023-02-10T07:11:31;9.20;;;5.82;;
56255;SDS011;57229;51.432;-2.598;2023-02-10T07:13:58;10.80;;;5.85;;
56255;SDS011;57229;51.432;-2.598;2023-02-10T07:16:24;9.10;;;5.60;;
56255;SDS011;57229;51.432;-2.598;2023-02-10T07:18:50;10.18;;;6.13;;
56255;SDS011;57229;51.432;-2.598;2023-02-10T07:21:15;9.55;;;6.30;;
56255;SDS011;57229;51.432;-2.598;2023-02-10T07:23:41;9.57;;;5.78;;
56255;SDS011;57229;51.432;-2.598;2023-02-10T07:26:07;9.85;;;5.65;;
56255;SDS011;57229;51.432;-2.598;2023-02-10T07:28:33;9.40;;;5.70;;
56255;SDS011;57229;51.432;-2.598;2023-02-10T07:30:59;8.60;;;6.15;;
56255;SDS011;57229;51.432;-2.598;2023-02-10T07:33:25;8.10;;;5.65;;
56255;SDS011;57229;51.432;-2.598;2023-02-10T07:35:51;8.57;;;5.32;;
56255;SDS011;57229;51.432;-2.598;2023-02-10T07:38:16;10.00;;;5.65;;
56255;SDS011;57229;51.432;-2.598;2023-02-10T07:40:42;7.80;;;4.88;;
56255;SDS011;57229;51.432;-2.598;2023-02-10T07:43:08;8.13;;;4.95;;
56255;SDS011;57229;51.432;-2.598;2023-02-10T07:45:33;7.80;;;5.18;;
56255;SDS011;57229;51.432;-2.598;2023-02-10T07:47:59;10.32;;;5.95;;
56255;SDS011;57229;51.432;-2.598;2023-02-10T07:50:25;7.57;;;5.03;;
56255;SDS011;57229;51.432;-2.598;2023-02-10T07:52:51;11.35;;;5.47;;
56255;SDS011;57229;51.432;-2.598;2023-02-10T07:55:17;9.05;;;5.05;;
56255;SDS011;57229;51.432;-2.598;2023-02-10T07:57:43;9.68;;;5.10;;
56255;SDS011;57229;51.432;-2.598;2023-02-10T08:00:09;8.10;;;5.00;;
56255;SDS011;57229;51.432;-2.598;2023-02-10T08:02:37;11.65;;;5.90;;
56255;SDS011;57229;51.432;-2.598;2023-02-10T08:05:03;8.38;;;5.35;;
56255;SDS011;57229;51.432;-2.598;2023-02-10T08:07:29;10.63;;;5.57;;
56255;SDS011;57229;51.432;-2.598;2023-02-10T08:09:54;17.13;;;5.70;;
56255;SDS011;57229;51.432;-2.598;2023-02-10T08:12:20;11.05;;;5.47;;
56255;SDS011;57229;51.432;-2.598;2023-02-10T08:14:45;14.43;;;5.45;;
56255;SDS011;57229;51.432;-2.598;2023-02-10T08:17:11;12.90;;;5.30;;
56255;SDS011;57229;51.432;-2.598;2023-02-10T08:19:37;13.77;;;5.35;;
56255;SDS011;57229;51.432;-2.598;2023-02-10T08:22:03;13.30;;;5.10;;
56255;SDS011;57229;51.432;-2.598;2023-02-10T08:24:30;10.38;;;5.00;;
56255;SDS011;57229;51.432;-2.598;2023-02-10T08:26:55;24.88;;;6.20;;
56255;SDS011;57229;51.432;-2.598;2023-02-10T08:29:21;15.18;;;5.32;;
56255;SDS011;57229;51.432;-2.598;2023-02-10T08:31:50;21.35;;;5.85;;
56255;SDS011;57229;51.432;-2.598;2023-02-10T08:34:17;22.02;;;5.60;;
56255;SDS011;57229;51.432;-2.598;2023-02-10T08:36:44;14.15;;;5.57;;
56255;SDS011;57229;51.432;-2.598;2023-02-10T08:39:11;22.02;;;5.50;;
56255;SDS011;57229;51.432;-2.598;2023-02-10T08:41:37;19.52;;;6.07;;
56255;SDS011;57229;51.432;-2.598;2023-02-10T08:44:03;16.65;;;5.55;;
56255;SDS011;57229;51.432;-2.598;2023-02-10T08:46:30;19.30;;;5.65;;
56255;SDS011;57229;51.432;-2.598;2023-02-10T08:48:56;14.68;;;5.70;;
56255;SDS011;57229;51.432;-2.598;2023-02-10T08:51:21;14.75;;;5.38;;
56255;SDS011;57229;51.432;-2.598;2023-02-10T08:53:47;12.82;;;5.95;;
56255;SDS011;57229;51.432;-2.598;2023-02-10T08:56:15;15.48;;;5.22;;
56255;SDS011;57229;51.432;-2.598;2023-02-10T08:58:42;14.30;;;5.80;;
56255;SDS011;57229;51.432;-2.598;2023-02-10T09:01:12;14.98;;;5.22;;
56255;SDS011;57229;51.432;-2.598;2023-02-10T09:03:42;20.00;;;5.25;;
56255;SDS011;57229;51.432;-2.598;2023-02-10T09:06:15;9.77;;;4.97;;
56255;SDS011;57229;51.432;-2.598;2023-02-10T09:08:43;15.52;;;5.03;;
56255;SDS011;57229;51.432;-2.598;2023-02-10T09:11:10;13.57;;;5.18;;
56255;SDS011;57229;51.432;-2.598;2023-02-10T09:13:35;9.10;;;5.10;;
56255;SDS011;57229;51.432;-2.598;2023-02-10T09:16:01;14.25;;;4.88;;
56255;SDS011;57229;51.432;-2.598;2023-02-10T09:18:27;12.30;;;5.10;;
56255;SDS011;57229;51.432;-2.598;2023-02-10T09:20:52;10.50;;;4.93;;
56255;SDS011;57229;51.432;-2.598;2023-02-10T09:23:18;7.68;;;4.78;;
56255;SDS011;57229;51.432;-2.598;2023-02-10T09:25:51;12.18;;;5.00;;
56255;SDS011;57229;51.432;-2.598;2023-02-10T09:28:18;11.20;;;4.60;;
56255;SDS011;57229;51.432;-2.598;2023-02-10T09:30:43;7.63;;;4.50;;
56255;SDS011;57229;51.432;-2.598;2023-02-10T09:33:09;11.10;;;5.00;;
56255;SDS011;57229;51.432;-2.598;2023-02-10T09:35:35;10.98;;;4.55;;
56255;SDS011;57229;51.432;-2.598;2023-02-10T09:38:01;8.95;;;5.70;;
56255;SDS011;57229;51.432;-2.598;2023-02-10T09:40:28;11.95;;;5.10;;
56255;SDS011;57229;51.432;-2.598;2023-02-10T09:43:02;8.93;;;5.05;;
56255;SDS011;57229;51.432;-2.598;2023-02-10T09:45:41;8.15;;;4.82;;
56255;SDS011;57229;51.432;-2.598;2023-02-10T09:53:59;10.75;;;4.85;;
56255;SDS011;57229;51.432;-2.598;2023-02-10T09:56:26;11.98;;;4.95;;
56255;SDS011;57229;51.432;-2.598;2023-02-10T09:58:53;9.82;;;4.50;;
56255;SDS011;57229;51.432;-2.598;2023-02-10T10:04:04;7.47;;;4.47;;
56255;SDS011;57229;51.432;-2.598;2023-02-10T10:06:43;11.63;;;4.40;;
56255;SDS011;57229;51.432;-2.598;2023-02-10T10:12:04;6.85;;;4.75;;
56255;SDS011;57229;51.432;-2.598;2023-02-10T10:14:36;7.50;;;4.90;;
56255;SDS011;57229;51.432;-2.598;2023-02-10T10:17:09;7.30;;;4.72;;
56255;SDS011;57229;51.432;-2.598;2023-02-10T10:25:28;10.00;;;4.50;;
56255;SDS011;57229;51.432;-2.598;2023-02-10T10:28:06;6.88;;;4.35;;
56255;SDS011;57229;51.432;-2.598;2023-02-10T10:31:08;6.68;;;4.90;;
56255;SDS011;57229;51.432;-2.598;2023-02-10T10:33:36;7.88;;;4.10;;
56255;SDS011;57229;51.432;-2.598;2023-02-10T10:36:15;5.65;;;4.13;;
56255;SDS011;57229;51.432;-2.598;2023-02-10T10:38:48;6.72;;;3.88;;
56255;SDS011;57229;51.432;-2.598;2023-02-10T10:41:16;5.82;;;4.32;;
56255;SDS011;57229;51.432;-2.598;2023-02-10T10:46:21;7.53;;;4.22;;
56255;SDS011;57229;51.432;-2.598;2023-02-10T10:48:51;15.18;;;4.45;;
56255;SDS011;57229;51.432;-2.598;2023-02-10T10:51:17;11.10;;;4.75;;
56255;SDS011;57229;51.432;-2.598;2023-02-10T10:53:47;10.43;;;4.55;;
56255;SDS011;57229;51.432;-2.598;2023-02-10T10:58:48;9.10;;;4.43;;
56255;SDS011;57229;51.432;-2.598;2023-02-10T11:01:16;8.93;;;4.30;;
56255;SDS011;57229;51.432;-2.598;2023-02-10T11:03:43;12.35;;;4.40;;
56255;SDS011;57229;51.432;-2.598;2023-02-10T11:06:12;12.52;;;4.78;;
56255;SDS011;57229;51.432;-2.598;2023-02-10T11:08:45;7.80;;;4.35;;
56255;SDS011;57229;51.432;-2.598;2023-02-10T11:11:19;11.32;;;4.57;;
56255;SDS011;57229;51.432;-2.598;2023-02-10T11:14:11;9.27;;;4.50;;
56255;SDS011;57229;51.432;-2.598;2023-02-10T11:16:48;15.57;;;4.82;;
56255;SDS011;57229;51.432;-2.598;2023-02-10T11:19:20;9.40;;;4.20;;
56255;SDS011;57229;51.432;-2.598;2023-02-10T11:21:50;9.23;;;4.30;;
56255;SDS011;57229;51.432;-2.598;2023-02-10T11:24:28;8.70;;;4.47;;
56255;SDS011;57229;51.432;-2.598;2023-02-10T11:26:57;8.38;;;4.00;;
56255;SDS011;57229;51.432;-2.598;2023-02-10T11:29:28;11.40;;;4.70;;
56255;SDS011;57229;51.432;-2.598;2023-02-10T11:34:51;13.77;;;5.30;;
56255;SDS011;57229;51.432;-2.598;2023-02-10T11:43:44;11.73;;;4.70;;
56255;SDS011;57229;51.432;-2.598;2023-02-10T11:46:17;12.45;;;3.92;;
56255;SDS011;57229;51.432;-2.598;2023-02-10T11:49:17;8.73;;;4.13;;
56255;SDS011;57229;51.432;-2.598;2023-02-10T11:52:03;11.77;;;4.60;;
56255;SDS011;57229;51.432;-2.598;2023-02-10T11:54:29;14.45;;;5.03;;
56255;SDS011;57229;51.432;-2.598;2023-02-10T12:09:15;7.95;;;3.50;;
56255;SDS011;57229;51.432;-2.598;2023-02-10T12:13:02;9.70;;;4.03;;
56255;SDS011;57229;51.432;-2.598;2023-02-10T12:15:23;11.07;;;4.10;;
56255;SDS011;57229;51.432;-2.598;2023-02-10T12:21:35;10.93;;;4.43;;
56255;SDS011;57229;51.432;-2.598;2023-02-10T12:29:47;7.38;;;3.70;;
56255;SDS011;57229;51.432;-2.598;2023-02-10T12:38:53;7.28;;;3.33;;
56255;SDS011;57229;51.432;-2.598;2023-02-10T12:41:49;7.72;;;3.00;;
56255;SDS011;57229;51.432;-2.598;2023-02-10T12:51:09;5.80;;;3.10;;
56255;SDS011;57229;51.432;-2.598;2023-02-10T12:54:02;7.80;;;3.03;;
56255;SDS011;57229;51.432;-2.598;2023-02-10T12:59:46;11.25;;;3.88;;
56255;SDS011;57229;51.432;-2.598;2023-02-10T13:03:17;25.10;;;12.02;;
56255;SDS011;57229;51.432;-2.598;2023-02-10T13:09:21;105.55;;;53.35;;
56255;SDS011;57229;51.432;-2.598;2023-02-10T13:18:04;162.90;;;84.00;;
56255;SDS011;57229;51.432;-2.598;2023-02-10T13:27:19;175.75;;;93.45;;
56255;SDS011;57229;51.432;-2.598;2023-02-10T13:32:53;177.75;;;90.90;;
56255;SDS011;57229;51.432;-2.598;2023-02-10T13:35:30;187.52;;;95.35;;
56255;SDS011;57229;51.432;-2.598;2023-02-10T13:40:52;177.10;;;96.15;;
56255;SDS011;57229;51.432;-2.598;2023-02-10T13:43:40;175.95;;;93.43;;
56255;SDS011;57229;51.432;-2.598;2023-02-10T13:46:33;172.30;;;92.75;;
56255;SDS011;57229;51.432;-2.598;2023-02-10T13:49:00;174.18;;;91.18;;
56255;SDS011;57229;51.432;-2.598;2023-02-10T13:58:27;162.80;;;85.13;;
56255;SDS011;57229;51.432;-2.598;2023-02-10T14:01:29;157.55;;;85.90;;
56255;SDS011;57229;51.432;-2.598;2023-02-10T14:04:25;151.35;;;82.15;;
56255;SDS011;57229;51.432;-2.598;2023-02-10T14:06:57;151.38;;;81.95;;
56255;SDS011;57229;51.432;-2.598;2023-02-10T14:09:49;143.13;;;78.43;;
56255;SDS011;57229;51.432;-2.598;2023-02-10T14:12:52;153.43;;;78.97;;
56255;SDS011;57229;51.432;-2.598;2023-02-10T14:15:24;139.50;;;73.47;;
56255;SDS011;57229;51.432;-2.598;2023-02-10T14:17:57;144.07;;;78.07;;
56255;SDS011;57229;51.432;-2.598;2023-02-10T14:20:27;139.07;;;73.68;;
56255;SDS011;57229;51.432;-2.598;2023-02-10T14:23:06;144.30;;;73.68;;
56255;SDS011;57229;51.432;-2.598;2023-02-10T14:28:46;132.95;;;68.65;;
56255;SDS011;57229;51.432;-2.598;2023-02-10T14:34:54;119.65;;;65.30;;
56255;SDS011;57229;51.432;-2.598;2023-02-10T14:37:24;126.53;;;63.40;;
56255;SDS011;57229;51.432;-2.598;2023-02-10T14:39:52;121.75;;;63.92;;
56255;SDS011;57229;51.432;-2.598;2023-02-10T14:42:22;120.55;;;62.30;;
56255;SDS011;57229;51.432;-2.598;2023-02-10T14:44:53;125.25;;;62.63;;
56255;SDS011;57229;51.432;-2.598;2023-02-10T14:47:22;114.95;;;61.65;;
56255;SDS011;57229;51.432;-2.598;2023-02-10T14:49:54;112.97;;;58.75;;
56255;SDS011;57229;51.432;-2.598;2023-02-10T14:52:23;109.88;;;58.85;;
56255;SDS011;57229;51.432;-2.598;2023-02-10T14:55:43;110.65;;;55.50;;
56255;SDS011;57229;51.432;-2.598;2023-02-10T15:01:32;108.15;;;54.40;;
56255;SDS011;57229;51.432;-2.598;2023-02-10T15:04:34;96.88;;;52.55;;
56255;SDS011;57229;51.432;-2.598;2023-02-10T15:07:39;104.28;;;53.60;;
56255;SDS011;57229;51.432;-2.598;2023-02-10T15:10:18;100.85;;;50.63;;
56255;SDS011;57229;51.432;-2.598;2023-02-10T15:12:45;97.32;;;50.88;;
56255;SDS011;57229;51.432;-2.598;2023-02-10T15:17:57;93.05;;;48.80;;
56255;SDS011;57229;51.432;-2.598;2023-02-10T15:20:49;91.03;;;46.88;;
56255;SDS011;57229;51.432;-2.598;2023-02-10T15:23:20;92.05;;;46.83;;
56255;SDS011;57229;51.432;-2.598;2023-02-10T15:25:46;82.78;;;44.40;;
56255;SDS011;57229;51.432;-2.598;2023-02-10T15:33:28;86.72;;;41.38;;
56255;SDS011;57229;51.432;-2.598;2023-02-10T15:36:16;78.82;;;39.47;;
56255;SDS011;57229;51.432;-2.598;2023-02-10T15:48:40;76.60;;;35.92;;
56255;SDS011;57229;51.432;-2.598;2023-02-10T15:51:06;72.47;;;36.53;;
56255;SDS011;57229;51.432;-2.598;2023-02-10T15:54:00;71.70;;;34.90;;
56255;SDS011;57229;51.432;-2.598;2023-02-10T15:56:25;69.93;;;35.22;;
56255;SDS011;57229;51.432;-2.598;2023-02-10T15:58:51;62.30;;;33.92;;
56255;SDS011;57229;51.432;-2.598;2023-02-10T16:01:17;64.60;;;33.22;;
56255;SDS011;57229;51.432;-2.598;2023-02-10T16:03:43;63.05;;;32.38;;
56255;SDS011;57229;51.432;-2.598;2023-02-10T16:06:13;62.25;;;32.45;;
56255;SDS011;57229;51.432;-2.598;2023-02-10T16:08:46;57.58;;;31.63;;
56255;SDS011;57229;51.432;-2.598;2023-02-10T16:21:41;53.22;;;28.02;;
56255;SDS011;57229;51.432;-2.598;2023-02-10T16:24:22;54.22;;;27.92;;
56255;SDS011;57229;51.432;-2.598;2023-02-10T16:26:50;49.08;;;26.13;;
56255;SDS011;57229;51.432;-2.598;2023-02-10T16:31:43;50.40;;;27.35;;
56255;SDS011;57229;51.432;-2.598;2023-02-10T16:34:10;49.13;;;26.05;;
56255;SDS011;57229;51.432;-2.598;2023-02-10T16:36:36;50.00;;;25.98;;
56255;SDS011;57229;51.432;-2.598;2023-02-10T16:39:03;48.97;;;25.08;;
56255;SDS011;57229;51.432;-2.598;2023-02-10T16:41:30;43.28;;;24.50;;
56255;SDS011;57229;51.432;-2.598;2023-02-10T16:43:56;48.22;;;22.83;;
56255;SDS011;57229;51.432;-2.598;2023-02-10T16:46:22;45.17;;;23.30;;
56255;SDS011;57229;51.432;-2.598;2023-02-10T16:48:47;45.80;;;22.48;;
56255;SDS011;57229;51.432;-2.598;2023-02-10T16:51:13;39.50;;;22.02;;
56255;SDS011;57229;51.432;-2.598;2023-02-10T16:53:43;44.97;;;22.55;;
56255;SDS011;57229;51.432;-2.598;2023-02-10T16:56:14;41.33;;;21.98;;
56255;SDS011;57229;51.432;-2.598;2023-02-10T16:58:41;45.25;;;21.02;;
56255;SDS011;57229;51.432;-2.598;2023-02-10T17:01:07;37.28;;;20.40;;
56255;SDS011;57229;51.432;-2.598;2023-02-10T17:03:33;43.25;;;20.02;;
56255;SDS011;57229;51.432;-2.598;2023-02-10T17:05:59;40.47;;;19.30;;
56255;SDS011;57229;51.432;-2.598;2023-02-10T17:08:24;35.28;;;18.23;;
56255;SDS011;57229;51.432;-2.598;2023-02-10T17:10:50;35.50;;;18.17;;
56255;SDS011;57229;51.432;-2.598;2023-02-10T17:13:19;37.15;;;18.13;;
56255;SDS011;57229;51.432;-2.598;2023-02-10T17:15:50;37.40;;;17.33;;
56255;SDS011;57229;51.432;-2.598;2023-02-10T17:18:16;35.78;;;17.85;;